sensor_id;sensor_type;location;lat;lon;timestamp;P1;durP1;ratioP1;P2;durP2;ratioP2
26407;SDS011;14583;43.604;1.364;2022-10-31T00:01:12;28.45;;;8.90;;
26407;SDS011;14583;43.604;1.364;2022-10-31T00:04:10;32.90;;;9.88;;
26407;SDS011;14583;43.604;1.364;2022-10-31T00:06:36;24.90;;;8.45;;
26407;SDS011;14583;43.604;1.364;2022-10-31T00:09:02;26.25;;;8.40;;
26407;SDS011;14583;43.604;1.364;2022-10-31T00:11:29;36.03;;;9.43;;
26407;SDS011;14583;43.604;1.364;2022-10-31T00:13:56;31.33;;;9.20;;
26407;SDS011;14583;43.604;1.364;2022-10-31T00:16:23;34.63;;;9.25;;
26407;SDS011;14583;43.604;1.364;2022-10-31T00:18:50;28.77;;;8.85;;
26407;SDS011;14583;43.604;1.364;2022-10-31T00:21:17;34.92;;;8.82;;
26407;SDS011;14583;43.604;1.364;2022-10-31T00:23:43;28.70;;;8.63;;
26407;SDS011;14583;43.604;1.364;2022-10-31T00:26:08;35.50;;;9.85;;
26407;SDS011;14583;43.604;1.364;2022-10-31T00:28:34;39.05;;;9.88;;
26407;SDS011;14583;43.604;1.364;2022-10-31T00:31:00;35.92;;;10.52;;
26407;SDS011;14583;43.604;1.364;2022-10-31T00:33:27;29.00;;;8.65;;
26407;SDS011;14583;43.604;1.364;2022-10-31T00:35:53;31.48;;;9.00;;
26407;SDS011;14583;43.604;1.364;2022-10-31T00:38:19;27.20;;;9.10;;
26407;SDS011;14583;43.604;1.364;2022-10-31T00:40:44;26.65;;;8.88;;
26407;SDS011;14583;43.604;1.364;2022-10-31T00:43:10;38.00;;;9.40;;
26407;SDS011;14583;43.604;1.364;2022-10-31T00:45:36;28.48;;;9.10;;
26407;SDS011;14583;43.604;1.364;2022-10-31T00:48:01;33.58;;;9.93;;
26407;SDS011;14583;43.604;1.364;2022-10-31T00:50:27;31.63;;;9.63;;
26407;SDS011;14583;43.604;1.364;2022-10-31T00:52:52;34.65;;;9.27;;
26407;SDS011;14583;43.604;1.364;2022-10-31T00:55:18;26.92;;;9.43;;
26407;SDS011;14583;43.604;1.364;2022-10-31T00:57:47;26.73;;;9.40;;
26407;SDS011;14583;43.604;1.364;2022-10-31T01:00:12;30.55;;;10.18;;
26407;SDS011;14583;43.604;1.364;2022-10-31T01:02:39;35.55;;;10.30;;
26407;SDS011;14583;43.604;1.364;2022-10-31T01:05:04;37.58;;;9.60;;
26407;SDS011;14583;43.604;1.364;2022-10-31T01:07:30;32.75;;;10.20;;
26407;SDS011;14583;43.604;1.364;2022-10-31T01:09:56;33.47;;;9.95;;
26407;SDS011;14583;43.604;1.364;2022-10-31T01:12:21;35.95;;;10.73;;
26407;SDS011;14583;43.604;1.364;2022-10-31T01:14:47;26.15;;;9.23;;
26407;SDS011;14583;43.604;1.364;2022-10-31T01:17:13;33.78;;;10.82;;
26407;SDS011;14583;43.604;1.364;2022-10-31T01:19:39;34.30;;;10.07;;
26407;SDS011;14583;43.604;1.364;2022-10-31T01:22:05;32.05;;;10.13;;
26407;SDS011;14583;43.604;1.364;2022-10-31T01:24:31;35.83;;;10.43;;
26407;SDS011;14583;43.604;1.364;2022-10-31T01:26:57;33.80;;;10.25;;
26407;SDS011;14583;43.604;1.364;2022-10-31T01:29:22;34.90;;;9.77;;
26407;SDS011;14583;43.604;1.364;2022-10-31T01:31:48;34.50;;;9.98;;
26407;SDS011;14583;43.604;1.364;2022-10-31T01:34:15;36.78;;;9.77;;
26407;SDS011;14583;43.604;1.364;2022-10-31T01:36:42;29.25;;;8.88;;
26407;SDS011;14583;43.604;1.364;2022-10-31T01:39:10;28.83;;;9.50;;
26407;SDS011;14583;43.604;1.364;2022-10-31T01:41:42;43.13;;;9.70;;
26407;SDS011;14583;43.604;1.364;2022-10-31T01:49:51;32.97;;;10.18;;
26407;SDS011;14583;43.604;1.364;2022-10-31T01:54:56;30.90;;;9.23;;
26407;SDS011;14583;43.604;1.364;2022-10-31T01:57:29;33.95;;;9.40;;
26407;SDS011;14583;43.604;1.364;2022-10-31T01:59:59;32.00;;;8.93;;
26407;SDS011;14583;43.604;1.364;2022-10-31T02:02:28;25.20;;;8.95;;
26407;SDS011;14583;43.604;1.364;2022-10-31T02:04:55;26.52;;;8.70;;
26407;SDS011;14583;43.604;1.364;2022-10-31T02:07:25;24.80;;;8.27;;
26407;SDS011;14583;43.604;1.364;2022-10-31T02:09:55;30.40;;;9.43;;
26407;SDS011;14583;43.604;1.364;2022-10-31T02:12:22;24.95;;;9.25;;
26407;SDS011;14583;43.604;1.364;2022-10-31T02:14:49;30.40;;;8.90;;
26407;SDS011;14583;43.604;1.364;2022-10-31T02:17:15;28.13;;;8.25;;
26407;SDS011;14583;43.604;1.364;2022-10-31T02:25:02;25.70;;;9.55;;
26407;SDS011;14583;43.604;1.364;2022-10-31T02:30:34;26.73;;;9.48;;
26407;SDS011;14583;43.604;1.364;2022-10-31T02:34:07;35.08;;;10.95;;
26407;SDS011;14583;43.604;1.364;2022-10-31T02:36:19;31.48;;;9.50;;
26407;SDS011;14583;43.604;1.364;2022-10-31T02:39:21;28.85;;;9.57;;
26407;SDS011;14583;43.604;1.364;2022-10-31T02:42:04;33.90;;;9.65;;
26407;SDS011;14583;43.604;1.364;2022-10-31T02:47:18;27.45;;;9.13;;
26407;SDS011;14583;43.604;1.364;2022-10-31T02:52:49;33.50;;;9.93;;
26407;SDS011;14583;43.604;1.364;2022-10-31T02:57:51;49.83;;;11.20;;
26407;SDS011;14583;43.604;1.364;2022-10-31T03:00:20;38.78;;;10.60;;
26407;SDS011;14583;43.604;1.364;2022-10-31T03:03:04;24.92;;;9.23;;
26407;SDS011;14583;43.604;1.364;2022-10-31T03:16:14;29.15;;;10.20;;
26407;SDS011;14583;43.604;1.364;2022-10-31T03:21:27;30.52;;;11.60;;
26407;SDS011;14583;43.604;1.364;2022-10-31T03:24:11;29.67;;;10.20;;
26407;SDS011;14583;43.604;1.364;2022-10-31T03:26:39;32.40;;;10.45;;
26407;SDS011;14583;43.604;1.364;2022-10-31T03:29:10;36.80;;;9.98;;
26407;SDS011;14583;43.604;1.364;2022-10-31T03:31:39;33.60;;;10.60;;
26407;SDS011;14583;43.604;1.364;2022-10-31T03:34:12;32.72;;;9.98;;
26407;SDS011;14583;43.604;1.364;2022-10-31T03:36:40;26.40;;;9.43;;
26407;SDS011;14583;43.604;1.364;2022-10-31T03:39:07;27.88;;;9.80;;
26407;SDS011;14583;43.604;1.364;2022-10-31T03:41:39;35.47;;;10.45;;
26407;SDS011;14583;43.604;1.364;2022-10-31T03:44:09;27.88;;;9.77;;
26407;SDS011;14583;43.604;1.364;2022-10-31T03:46:39;28.13;;;10.23;;
26407;SDS011;14583;43.604;1.364;2022-10-31T03:49:05;28.90;;;10.23;;
26407;SDS011;14583;43.604;1.364;2022-10-31T03:51:37;33.22;;;10.68;;
26407;SDS011;14583;43.604;1.364;2022-10-31T03:59:50;29.15;;;10.20;;
26407;SDS011;14583;43.604;1.364;2022-10-31T04:02:20;36.47;;;10.20;;
26407;SDS011;14583;43.604;1.364;2022-10-31T04:04:51;33.80;;;9.60;;
26407;SDS011;14583;43.604;1.364;2022-10-31T04:07:17;31.85;;;10.93;;
26407;SDS011;14583;43.604;1.364;2022-10-31T04:09:45;22.17;;;9.65;;
26407;SDS011;14583;43.604;1.364;2022-10-31T04:12:13;36.83;;;10.50;;
26407;SDS011;14583;43.604;1.364;2022-10-31T04:14:41;25.60;;;10.35;;
26407;SDS011;14583;43.604;1.364;2022-10-31T04:17:10;34.13;;;10.60;;
26407;SDS011;14583;43.604;1.364;2022-10-31T04:19:39;28.80;;;10.00;;
26407;SDS011;14583;43.604;1.364;2022-10-31T04:22:05;33.50;;;10.15;;
26407;SDS011;14583;43.604;1.364;2022-10-31T04:24:31;30.98;;;9.88;;
26407;SDS011;14583;43.604;1.364;2022-10-31T04:26:56;32.63;;;10.82;;
26407;SDS011;14583;43.604;1.364;2022-10-31T04:29:22;32.38;;;9.93;;
26407;SDS011;14583;43.604;1.364;2022-10-31T04:31:48;33.25;;;10.32;;
26407;SDS011;14583;43.604;1.364;2022-10-31T04:34:13;32.47;;;10.32;;
26407;SDS011;14583;43.604;1.364;2022-10-31T04:36:39;29.25;;;9.65;;
26407;SDS011;14583;43.604;1.364;2022-10-31T04:39:04;43.25;;;11.00;;
26407;SDS011;14583;43.604;1.364;2022-10-31T04:41:30;30.65;;;10.00;;
26407;SDS011;14583;43.604;1.364;2022-10-31T04:43:56;37.13;;;10.52;;
26407;SDS011;14583;43.604;1.364;2022-10-31T04:46:21;33.38;;;11.15;;
26407;SDS011;14583;43.604;1.364;2022-10-31T04:48:47;32.85;;;10.30;;
26407;SDS011;14583;43.604;1.364;2022-10-31T04:51:13;29.35;;;10.02;;
26407;SDS011;14583;43.604;1.364;2022-10-31T04:53:38;28.80;;;10.70;;
26407;SDS011;14583;43.604;1.364;2022-10-31T04:56:04;28.55;;;9.88;;
26407;SDS011;14583;43.604;1.364;2022-10-31T04:58:30;35.92;;;11.27;;
26407;SDS011;14583;43.604;1.364;2022-10-31T05:00:56;35.72;;;10.48;;
26407;SDS011;14583;43.604;1.364;2022-10-31T05:03:21;33.28;;;9.88;;
26407;SDS011;14583;43.604;1.364;2022-10-31T05:05:47;32.70;;;10.10;;
26407;SDS011;14583;43.604;1.364;2022-10-31T05:08:14;34.88;;;10.93;;
26407;SDS011;14583;43.604;1.364;2022-10-31T05:10:39;37.05;;;10.18;;
26407;SDS011;14583;43.604;1.364;2022-10-31T05:13:05;29.00;;;10.40;;
26407;SDS011;14583;43.604;1.364;2022-10-31T05:15:31;37.72;;;10.50;;
26407;SDS011;14583;43.604;1.364;2022-10-31T05:17:57;35.88;;;11.05;;
26407;SDS011;14583;43.604;1.364;2022-10-31T05:20:24;30.80;;;11.15;;
26407;SDS011;14583;43.604;1.364;2022-10-31T05:22:52;33.60;;;10.25;;
26407;SDS011;14583;43.604;1.364;2022-10-31T05:25:20;26.23;;;10.07;;
26407;SDS011;14583;43.604;1.364;2022-10-31T05:27:48;30.70;;;10.52;;
26407;SDS011;14583;43.604;1.364;2022-10-31T05:30:17;32.50;;;10.52;;
26407;SDS011;14583;43.604;1.364;2022-10-31T05:32:46;31.15;;;10.88;;
26407;SDS011;14583;43.604;1.364;2022-10-31T05:35:14;28.52;;;9.88;;
26407;SDS011;14583;43.604;1.364;2022-10-31T05:37:44;39.17;;;10.40;;
26407;SDS011;14583;43.604;1.364;2022-10-31T05:40:11;31.33;;;10.65;;
26407;SDS011;14583;43.604;1.364;2022-10-31T05:42:38;30.38;;;10.68;;
26407;SDS011;14583;43.604;1.364;2022-10-31T05:45:05;25.23;;;10.55;;
26407;SDS011;14583;43.604;1.364;2022-10-31T05:47:41;33.20;;;11.48;;
26407;SDS011;14583;43.604;1.364;2022-10-31T05:50:07;37.17;;;11.05;;
26407;SDS011;14583;43.604;1.364;2022-10-31T05:52:34;35.92;;;11.68;;
26407;SDS011;14583;43.604;1.364;2022-10-31T05:55:00;28.50;;;10.38;;
26407;SDS011;14583;43.604;1.364;2022-10-31T05:57:25;36.20;;;11.77;;
26407;SDS011;14583;43.604;1.364;2022-10-31T05:59:51;35.75;;;10.25;;
26407;SDS011;14583;43.604;1.364;2022-10-31T06:02:18;29.33;;;10.50;;
26407;SDS011;14583;43.604;1.364;2022-10-31T06:04:44;32.55;;;9.98;;
26407;SDS011;14583;43.604;1.364;2022-10-31T06:07:10;32.97;;;11.50;;
26407;SDS011;14583;43.604;1.364;2022-10-31T06:09:35;32.13;;;10.23;;
26407;SDS011;14583;43.604;1.364;2022-10-31T06:12:01;31.15;;;10.10;;
26407;SDS011;14583;43.604;1.364;2022-10-31T06:14:27;32.80;;;10.52;;
26407;SDS011;14583;43.604;1.364;2022-10-31T06:16:53;32.03;;;10.20;;
26407;SDS011;14583;43.604;1.364;2022-10-31T06:19:26;31.38;;;9.88;;
26407;SDS011;14583;43.604;1.364;2022-10-31T06:21:52;37.08;;;10.23;;
26407;SDS011;14583;43.604;1.364;2022-10-31T06:24:17;39.55;;;10.40;;
26407;SDS011;14583;43.604;1.364;2022-10-31T06:26:43;33.35;;;10.77;;
26407;SDS011;14583;43.604;1.364;2022-10-31T06:29:08;30.85;;;10.73;;
26407;SDS011;14583;43.604;1.364;2022-10-31T06:31:34;32.63;;;9.85;;
26407;SDS011;14583;43.604;1.364;2022-10-31T06:34:00;35.25;;;10.43;;
26407;SDS011;14583;43.604;1.364;2022-10-31T06:36:25;34.00;;;11.20;;
26407;SDS011;14583;43.604;1.364;2022-10-31T06:38:51;25.85;;;10.18;;
26407;SDS011;14583;43.604;1.364;2022-10-31T06:41:17;31.75;;;10.55;;
26407;SDS011;14583;43.604;1.364;2022-10-31T06:43:45;38.05;;;10.75;;
26407;SDS011;14583;43.604;1.364;2022-10-31T06:46:12;31.50;;;11.15;;
26407;SDS011;14583;43.604;1.364;2022-10-31T06:48:37;42.33;;;10.88;;
26407;SDS011;14583;43.604;1.364;2022-10-31T06:51:05;35.58;;;10.25;;
26407;SDS011;14583;43.604;1.364;2022-10-31T06:53:30;28.30;;;11.07;;
26407;SDS011;14583;43.604;1.364;2022-10-31T06:55:56;33.80;;;11.23;;
26407;SDS011;14583;43.604;1.364;2022-10-31T06:58:22;27.95;;;10.27;;
26407;SDS011;14583;43.604;1.364;2022-10-31T07:00:48;30.50;;;10.23;;
26407;SDS011;14583;43.604;1.364;2022-10-31T07:03:14;28.38;;;9.95;;
26407;SDS011;14583;43.604;1.364;2022-10-31T07:05:40;27.13;;;11.38;;
26407;SDS011;14583;43.604;1.364;2022-10-31T07:08:08;28.48;;;11.07;;
26407;SDS011;14583;43.604;1.364;2022-10-31T07:10:36;35.47;;;11.43;;
26407;SDS011;14583;43.604;1.364;2022-10-31T07:13:03;39.40;;;12.10;;
26407;SDS011;14583;43.604;1.364;2022-10-31T07:15:33;31.10;;;11.23;;
26407;SDS011;14583;43.604;1.364;2022-10-31T07:18:00;35.83;;;10.43;;
26407;SDS011;14583;43.604;1.364;2022-10-31T07:20:30;33.08;;;11.60;;
26407;SDS011;14583;43.604;1.364;2022-10-31T07:22:56;29.20;;;10.43;;
26407;SDS011;14583;43.604;1.364;2022-10-31T07:25:23;28.52;;;9.93;;
26407;SDS011;14583;43.604;1.364;2022-10-31T07:27:49;30.58;;;10.13;;
26407;SDS011;14583;43.604;1.364;2022-10-31T07:30:15;35.03;;;9.38;;
26407;SDS011;14583;43.604;1.364;2022-10-31T07:32:47;32.83;;;10.82;;
26407;SDS011;14583;43.604;1.364;2022-10-31T07:35:18;29.92;;;10.77;;
26407;SDS011;14583;43.604;1.364;2022-10-31T07:37:45;34.05;;;11.07;;
26407;SDS011;14583;43.604;1.364;2022-10-31T07:40:12;31.42;;;10.05;;
26407;SDS011;14583;43.604;1.364;2022-10-31T07:42:38;25.77;;;9.88;;
26407;SDS011;14583;43.604;1.364;2022-10-31T07:45:06;33.95;;;11.02;;
26407;SDS011;14583;43.604;1.364;2022-10-31T07:50:13;34.45;;;10.27;;
26407;SDS011;14583;43.604;1.364;2022-10-31T07:52:41;38.78;;;10.45;;
26407;SDS011;14583;43.604;1.364;2022-10-31T07:55:07;36.03;;;10.82;;
26407;SDS011;14583;43.604;1.364;2022-10-31T07:57:33;35.92;;;11.63;;
26407;SDS011;14583;43.604;1.364;2022-10-31T07:59:59;26.35;;;9.75;;
26407;SDS011;14583;43.604;1.364;2022-10-31T08:02:25;32.75;;;11.30;;
26407;SDS011;14583;43.604;1.364;2022-10-31T08:04:51;35.47;;;10.10;;
26407;SDS011;14583;43.604;1.364;2022-10-31T08:07:17;33.03;;;9.90;;
26407;SDS011;14583;43.604;1.364;2022-10-31T08:09:43;33.28;;;9.80;;
26407;SDS011;14583;43.604;1.364;2022-10-31T08:12:08;34.30;;;9.98;;
26407;SDS011;14583;43.604;1.364;2022-10-31T08:14:34;28.50;;;9.60;;
26407;SDS011;14583;43.604;1.364;2022-10-31T08:17:00;30.13;;;9.18;;
26407;SDS011;14583;43.604;1.364;2022-10-31T08:19:25;27.45;;;9.52;;
26407;SDS011;14583;43.604;1.364;2022-10-31T08:21:51;22.67;;;10.00;;
26407;SDS011;14583;43.604;1.364;2022-10-31T08:24:19;27.80;;;9.45;;
26407;SDS011;14583;43.604;1.364;2022-10-31T08:26:45;33.05;;;9.90;;
26407;SDS011;14583;43.604;1.364;2022-10-31T08:29:11;29.38;;;9.13;;
26407;SDS011;14583;43.604;1.364;2022-10-31T08:31:37;30.98;;;9.68;;
26407;SDS011;14583;43.604;1.364;2022-10-31T08:34:02;33.28;;;9.27;;
26407;SDS011;14583;43.604;1.364;2022-10-31T08:36:29;36.17;;;9.18;;
26407;SDS011;14583;43.604;1.364;2022-10-31T08:38:54;37.60;;;9.52;;
26407;SDS011;14583;43.604;1.364;2022-10-31T08:41:20;35.90;;;8.88;;
26407;SDS011;14583;43.604;1.364;2022-10-31T08:43:46;32.00;;;8.93;;
26407;SDS011;14583;43.604;1.364;2022-10-31T08:46:12;32.47;;;8.93;;
26407;SDS011;14583;43.604;1.364;2022-10-31T08:48:38;37.75;;;9.82;;
26407;SDS011;14583;43.604;1.364;2022-10-31T08:51:04;33.15;;;9.25;;
26407;SDS011;14583;43.604;1.364;2022-10-31T08:53:29;36.13;;;8.93;;
26407;SDS011;14583;43.604;1.364;2022-10-31T08:55:55;27.75;;;8.27;;
26407;SDS011;14583;43.604;1.364;2022-10-31T08:58:22;25.70;;;8.95;;
26407;SDS011;14583;43.604;1.364;2022-10-31T09:00:52;25.23;;;9.45;;
26407;SDS011;14583;43.604;1.364;2022-10-31T09:03:20;36.03;;;8.45;;
26407;SDS011;14583;43.604;1.364;2022-10-31T09:05:47;23.23;;;8.20;;
26407;SDS011;14583;43.604;1.364;2022-10-31T09:08:13;33.50;;;8.85;;
26407;SDS011;14583;43.604;1.364;2022-10-31T09:10:40;23.92;;;8.73;;
26407;SDS011;14583;43.604;1.364;2022-10-31T09:13:09;32.20;;;8.45;;
26407;SDS011;14583;43.604;1.364;2022-10-31T09:15:37;31.08;;;8.30;;
26407;SDS011;14583;43.604;1.364;2022-10-31T09:18:05;25.02;;;8.30;;
26407;SDS011;14583;43.604;1.364;2022-10-31T09:20:32;24.42;;;7.28;;
26407;SDS011;14583;43.604;1.364;2022-10-31T09:22:59;28.80;;;8.13;;
26407;SDS011;14583;43.604;1.364;2022-10-31T09:25:27;26.90;;;8.27;;
26407;SDS011;14583;43.604;1.364;2022-10-31T09:27:59;31.60;;;8.52;;
26407;SDS011;14583;43.604;1.364;2022-10-31T09:30:26;31.70;;;7.93;;
26407;SDS011;14583;43.604;1.364;2022-10-31T09:32:57;25.70;;;7.88;;
26407;SDS011;14583;43.604;1.364;2022-10-31T09:35:25;30.92;;;7.95;;
26407;SDS011;14583;43.604;1.364;2022-10-31T09:37:55;34.42;;;8.05;;
26407;SDS011;14583;43.604;1.364;2022-10-31T09:40:21;23.90;;;7.82;;
26407;SDS011;14583;43.604;1.364;2022-10-31T09:43:22;28.20;;;7.85;;
26407;SDS011;14583;43.604;1.364;2022-10-31T09:51:51;25.15;;;7.22;;
26407;SDS011;14583;43.604;1.364;2022-10-31T09:54:26;24.67;;;7.72;;
26407;SDS011;14583;43.604;1.364;2022-10-31T09:57:10;25.40;;;7.25;;
26407;SDS011;14583;43.604;1.364;2022-10-31T09:59:40;28.48;;;8.10;;
26407;SDS011;14583;43.604;1.364;2022-10-31T10:02:13;28.38;;;7.70;;
26407;SDS011;14583;43.604;1.364;2022-10-31T10:05:02;24.42;;;7.10;;
26407;SDS011;14583;43.604;1.364;2022-10-31T10:10:29;24.48;;;7.78;;
26407;SDS011;14583;43.604;1.364;2022-10-31T10:26:38;23.20;;;6.80;;
26407;SDS011;14583;43.604;1.364;2022-10-31T10:31:45;23.75;;;6.97;;
26407;SDS011;14583;43.604;1.364;2022-10-31T10:36:50;29.63;;;7.78;;
26407;SDS011;14583;43.604;1.364;2022-10-31T10:39:22;29.60;;;7.57;;
26407;SDS011;14583;43.604;1.364;2022-10-31T10:42:04;25.58;;;7.30;;
26407;SDS011;14583;43.604;1.364;2022-10-31T10:44:55;26.58;;;7.53;;
26407;SDS011;14583;43.604;1.364;2022-10-31T10:47:41;40.25;;;7.15;;
26407;SDS011;14583;43.604;1.364;2022-10-31T10:50:15;29.80;;;6.93;;
26407;SDS011;14583;43.604;1.364;2022-10-31T10:55:25;18.70;;;6.28;;
26407;SDS011;14583;43.604;1.364;2022-10-31T10:58:11;28.42;;;7.68;;
26407;SDS011;14583;43.604;1.364;2022-10-31T11:00:44;29.63;;;7.32;;
26407;SDS011;14583;43.604;1.364;2022-10-31T11:03:14;24.55;;;6.90;;
26407;SDS011;14583;43.604;1.364;2022-10-31T11:05:50;17.80;;;7.05;;
26407;SDS011;14583;43.604;1.364;2022-10-31T11:08:24;15.60;;;6.95;;
26407;SDS011;14583;43.604;1.364;2022-10-31T11:11:01;25.80;;;7.47;;
26407;SDS011;14583;43.604;1.364;2022-10-31T11:13:44;24.02;;;6.47;;
26407;SDS011;14583;43.604;1.364;2022-10-31T11:16:13;23.52;;;6.90;;
26407;SDS011;14583;43.604;1.364;2022-10-31T11:18:48;33.70;;;6.75;;
26407;SDS011;14583;43.604;1.364;2022-10-31T11:21:29;19.27;;;6.28;;
26407;SDS011;14583;43.604;1.364;2022-10-31T11:24:17;17.60;;;6.55;;
26407;SDS011;14583;43.604;1.364;2022-10-31T11:26:45;24.10;;;6.40;;
26407;SDS011;14583;43.604;1.364;2022-10-31T11:31:51;28.52;;;6.75;;
26407;SDS011;14583;43.604;1.364;2022-10-31T11:34:25;32.92;;;7.15;;
26407;SDS011;14583;43.604;1.364;2022-10-31T11:37:23;23.08;;;7.03;;
26407;SDS011;14583;43.604;1.364;2022-10-31T11:39:50;30.85;;;7.05;;
26407;SDS011;14583;43.604;1.364;2022-10-31T11:42:22;27.90;;;6.43;;
26407;SDS011;14583;43.604;1.364;2022-10-31T11:44:52;30.98;;;8.10;;
26407;SDS011;14583;43.604;1.364;2022-10-31T11:47:27;26.15;;;7.05;;
26407;SDS011;14583;43.604;1.364;2022-10-31T11:49:55;24.85;;;6.43;;
26407;SDS011;14583;43.604;1.364;2022-10-31T11:52:23;23.10;;;7.15;;
26407;SDS011;14583;43.604;1.364;2022-10-31T11:54:59;21.75;;;6.57;;
26407;SDS011;14583;43.604;1.364;2022-10-31T11:57:42;23.70;;;7.25;;
26407;SDS011;14583;43.604;1.364;2022-10-31T12:02:45;23.83;;;7.38;;
26407;SDS011;14583;43.604;1.364;2022-10-31T12:05:17;28.35;;;7.35;;
26407;SDS011;14583;43.604;1.364;2022-10-31T12:07:45;24.13;;;6.68;;
26407;SDS011;14583;43.604;1.364;2022-10-31T12:10:12;25.48;;;6.53;;
26407;SDS011;14583;43.604;1.364;2022-10-31T12:23:13;21.48;;;6.20;;
26407;SDS011;14583;43.604;1.364;2022-10-31T12:36:30;21.85;;;7.10;;
26407;SDS011;14583;43.604;1.364;2022-10-31T12:47:10;30.35;;;6.97;;
26407;SDS011;14583;43.604;1.364;2022-10-31T12:52:39;22.63;;;6.22;;
26407;SDS011;14583;43.604;1.364;2022-10-31T12:58:14;23.98;;;6.78;;
26407;SDS011;14583;43.604;1.364;2022-10-31T13:00:48;26.63;;;6.20;;
26407;SDS011;14583;43.604;1.364;2022-10-31T13:06:40;26.55;;;7.35;;
26407;SDS011;14583;43.604;1.364;2022-10-31T13:09:15;30.13;;;6.55;;
26407;SDS011;14583;43.604;1.364;2022-10-31T13:11:50;22.27;;;6.35;;
26407;SDS011;14583;43.604;1.364;2022-10-31T13:14:23;23.05;;;6.47;;
26407;SDS011;14583;43.604;1.364;2022-10-31T13:17:14;22.67;;;6.35;;
26407;SDS011;14583;43.604;1.364;2022-10-31T13:19:47;19.35;;;6.47;;
26407;SDS011;14583;43.604;1.364;2022-10-31T13:22:25;18.58;;;6.00;;
26407;SDS011;14583;43.604;1.364;2022-10-31T13:28:21;23.77;;;6.63;;
26407;SDS011;14583;43.604;1.364;2022-10-31T13:30:26;21.42;;;6.60;;
26407;SDS011;14583;43.604;1.364;2022-10-31T13:33:14;23.60;;;6.60;;
26407;SDS011;14583;43.604;1.364;2022-10-31T13:40:59;21.42;;;6.80;;
26407;SDS011;14583;43.604;1.364;2022-10-31T13:48:57;23.27;;;6.57;;
26407;SDS011;14583;43.604;1.364;2022-10-31T13:51:24;22.42;;;6.63;;
26407;SDS011;14583;43.604;1.364;2022-10-31T13:56:27;23.55;;;6.88;;
26407;SDS011;14583;43.604;1.364;2022-10-31T13:59:03;31.50;;;7.38;;
26407;SDS011;14583;43.604;1.364;2022-10-31T14:02:00;26.70;;;8.10;;
26407;SDS011;14583;43.604;1.364;2022-10-31T14:04:38;26.55;;;6.93;;
26407;SDS011;14583;43.604;1.364;2022-10-31T14:07:14;26.88;;;6.43;;
26407;SDS011;14583;43.604;1.364;2022-10-31T14:15:04;18.73;;;6.90;;
26407;SDS011;14583;43.604;1.364;2022-10-31T14:17:58;24.02;;;6.57;;
26407;SDS011;14583;43.604;1.364;2022-10-31T14:28:49;18.95;;;6.70;;
26407;SDS011;14583;43.604;1.364;2022-10-31T14:39:32;22.85;;;6.65;;
26407;SDS011;14583;43.604;1.364;2022-10-31T14:42:22;31.10;;;7.30;;
26407;SDS011;14583;43.604;1.364;2022-10-31T14:53:22;17.80;;;6.70;;
26407;SDS011;14583;43.604;1.364;2022-10-31T14:55:49;21.25;;;7.20;;
26407;SDS011;14583;43.604;1.364;2022-10-31T14:58:18;22.50;;;6.93;;
26407;SDS011;14583;43.604;1.364;2022-10-31T15:00:50;24.45;;;6.97;;
26407;SDS011;14583;43.604;1.364;2022-10-31T15:03:32;29.43;;;7.53;;
26407;SDS011;14583;43.604;1.364;2022-10-31T15:06:11;23.65;;;6.72;;
26407;SDS011;14583;43.604;1.364;2022-10-31T15:08:40;23.05;;;6.70;;
26407;SDS011;14583;43.604;1.364;2022-10-31T15:11:11;18.77;;;6.20;;
26407;SDS011;14583;43.604;1.364;2022-10-31T15:13:42;28.25;;;7.15;;
26407;SDS011;14583;43.604;1.364;2022-10-31T15:16:42;32.63;;;7.78;;
26407;SDS011;14583;43.604;1.364;2022-10-31T15:19:07;19.60;;;6.18;;
26407;SDS011;14583;43.604;1.364;2022-10-31T15:21:35;29.67;;;7.88;;
26407;SDS011;14583;43.604;1.364;2022-10-31T15:24:10;23.58;;;7.07;;
26407;SDS011;14583;43.604;1.364;2022-10-31T15:26:42;25.27;;;7.32;;
26407;SDS011;14583;43.604;1.364;2022-10-31T15:29:12;25.25;;;7.40;;
26407;SDS011;14583;43.604;1.364;2022-10-31T15:31:39;23.02;;;7.65;;
26407;SDS011;14583;43.604;1.364;2022-10-31T15:34:41;21.48;;;6.68;;
26407;SDS011;14583;43.604;1.364;2022-10-31T15:37:11;29.63;;;7.45;;
26407;SDS011;14583;43.604;1.364;2022-10-31T15:39:38;17.65;;;6.78;;
26407;SDS011;14583;43.604;1.364;2022-10-31T15:42:04;21.27;;;6.82;;
26407;SDS011;14583;43.604;1.364;2022-10-31T15:44:43;26.17;;;7.00;;
26407;SDS011;14583;43.604;1.364;2022-10-31T15:47:15;24.40;;;7.53;;
26407;SDS011;14583;43.604;1.364;2022-10-31T15:49:47;19.50;;;6.63;;
26407;SDS011;14583;43.604;1.364;2022-10-31T15:52:35;25.13;;;6.78;;
26407;SDS011;14583;43.604;1.364;2022-10-31T15:55:14;20.77;;;6.57;;
26407;SDS011;14583;43.604;1.364;2022-10-31T15:57:45;21.48;;;6.38;;
26407;SDS011;14583;43.604;1.364;2022-10-31T16:00:47;25.58;;;7.55;;
26407;SDS011;14583;43.604;1.364;2022-10-31T16:05:53;33.00;;;7.18;;
26407;SDS011;14583;43.604;1.364;2022-10-31T16:08:24;25.63;;;7.03;;
26407;SDS011;14583;43.604;1.364;2022-10-31T16:13:28;26.67;;;7.50;;
26407;SDS011;14583;43.604;1.364;2022-10-31T16:16:00;25.83;;;6.72;;
26407;SDS011;14583;43.604;1.364;2022-10-31T16:18:29;22.70;;;7.40;;
26407;SDS011;14583;43.604;1.364;2022-10-31T16:21:00;30.45;;;7.43;;
26407;SDS011;14583;43.604;1.364;2022-10-31T16:23:26;30.08;;;8.15;;
26407;SDS011;14583;43.604;1.364;2022-10-31T16:25:52;26.77;;;6.88;;
26407;SDS011;14583;43.604;1.364;2022-10-31T16:28:19;20.42;;;7.28;;
26407;SDS011;14583;43.604;1.364;2022-10-31T16:30:58;31.67;;;7.55;;
26407;SDS011;14583;43.604;1.364;2022-10-31T16:33:26;33.00;;;8.57;;
26407;SDS011;14583;43.604;1.364;2022-10-31T16:35:56;22.30;;;7.55;;
26407;SDS011;14583;43.604;1.364;2022-10-31T16:38:22;26.92;;;7.40;;
26407;SDS011;14583;43.604;1.364;2022-10-31T16:40:49;23.80;;;7.60;;
26407;SDS011;14583;43.604;1.364;2022-10-31T16:43:16;28.40;;;7.70;;
26407;SDS011;14583;43.604;1.364;2022-10-31T16:45:51;27.58;;;7.68;;
26407;SDS011;14583;43.604;1.364;2022-10-31T16:48:21;27.42;;;7.40;;
26407;SDS011;14583;43.604;1.364;2022-10-31T16:50:48;31.35;;;8.60;;
26407;SDS011;14583;43.604;1.364;2022-10-31T16:53:15;25.98;;;7.63;;
26407;SDS011;14583;43.604;1.364;2022-10-31T16:56:01;28.90;;;7.90;;
26407;SDS011;14583;43.604;1.364;2022-10-31T16:58:29;24.00;;;8.00;;
26407;SDS011;14583;43.604;1.364;2022-10-31T17:00:56;23.70;;;7.78;;
26407;SDS011;14583;43.604;1.364;2022-10-31T17:03:26;22.90;;;7.57;;
26407;SDS011;14583;43.604;1.364;2022-10-31T17:05:52;24.60;;;8.20;;
26407;SDS011;14583;43.604;1.364;2022-10-31T17:08:20;25.25;;;7.95;;
26407;SDS011;14583;43.604;1.364;2022-10-31T17:10:46;25.77;;;8.05;;
26407;SDS011;14583;43.604;1.364;2022-10-31T17:13:25;25.83;;;8.15;;
26407;SDS011;14583;43.604;1.364;2022-10-31T17:15:54;26.63;;;8.00;;
26407;SDS011;14583;43.604;1.364;2022-10-31T17:18:21;30.60;;;7.57;;
26407;SDS011;14583;43.604;1.364;2022-10-31T17:20:48;29.63;;;7.90;;
26407;SDS011;14583;43.604;1.364;2022-10-31T17:23:15;27.23;;;7.53;;
26407;SDS011;14583;43.604;1.364;2022-10-31T17:25:41;24.38;;;8.40;;
26407;SDS011;14583;43.604;1.364;2022-10-31T17:28:10;21.38;;;7.60;;
26407;SDS011;14583;43.604;1.364;2022-10-31T17:30:38;19.50;;;7.82;;
26407;SDS011;14583;43.604;1.364;2022-10-31T17:33:11;23.60;;;8.07;;
26407;SDS011;14583;43.604;1.364;2022-10-31T17:35:39;27.33;;;8.18;;
26407;SDS011;14583;43.604;1.364;2022-10-31T17:38:05;31.30;;;8.82;;
26407;SDS011;14583;43.604;1.364;2022-10-31T17:40:30;26.77;;;8.32;;